Time;durP1;ratioP1;P1;durP2;ratioP2;P2;SDS_P1;SDS_P2;PMS_P1;PMS_P2;Temp;Humidity;BMP_temperature;BMP_pressure;BME280_temperature;BME280_humidity;BME280_pressure;Samples;Min_cycle;Max_cycle;Signal;HPM_P1;HPM_P2
2022/12/17 13:08:02;;;;;;;53.65;23.38;;;;;;;;;;5055748;28;20618;-70
2022/12/17 13:10:29;;;;;;;52.58;24.42;;;;;;;;;;5058121;28;20053;-70
2022/12/17 13:12:57;;;;;;;50.88;22.25;;;;;;;;;;5058158;28;20874;-68
2022/12/17 13:15:30;;;;;;;56.83;24.35;;;;;;;;;;5055764;28;20107;-70
2022/12/17 13:18:01;;;;;;;54.83;25.08;;;;;;;;;;5055120;28;20064;-69
2022/12/17 13:20:29;;;;;;;61.50;25.27;;;;;;;;;;5052903;28;20511;-69
2022/12/17 13:23:14;;;;;;;58.40;26.25;;;;;;;;;;5056078;28;20145;-69
2022/12/17 13:25:41;;;;;;;60.35;25.80;;;;;;;;;;5052050;28;20120;-70
2022/12/17 13:28:27;;;;;;;62.42;25.13;;;;;;;;;;5048270;28;20152;-70
2022/12/17 13:31:01;;;;;;;60.70;26.70;;;;;;;;;;5050394;28;20060;-70
2022/12/17 13:33:46;;;;;;;53.08;24.77;;;;;;;;;;5050341;28;20049;-69
2022/12/17 13:36:12;;;;;;;59.85;26.45;;;;;;;;;;5057412;28;20048;-69
2022/12/17 13:38:39;;;;;;;63.58;27.85;;;;;;;;;;5064539;28;20856;-70
2022/12/17 13:41:07;;;;;;;62.10;25.75;;;;;;;;;;5074818;28;20053;-69
2022/12/17 13:43:42;;;;;;;56.70;26.23;;;;;;;;;;5059454;28;20095;-69
2022/12/17 13:46:41;;;;;;;60.63;24.17;;;;;;;;;;5058435;28;20060;-69
2022/12/17 13:49:17;;;;;;;56.83;26.45;;;;;;;;;;5014511;28;20053;-69
2022/12/17 13:51:43;;;;;;;66.93;25.58;;;;;;;;;;5046472;28;20554;-69
2022/12/17 13:54:16;;;;;;;63.17;26.38;;;;;;;;;;5058391;28;20732;-68
2022/12/17 13:56:44;;;;;;;64.00;25.33;;;;;;;;;;5054242;28;20595;-69
2022/12/17 13:59:16;;;;;;;55.45;23.52;;;;;;;;;;5046891;28;20145;-69
2022/12/17 14:01:44;;;;;;;62.20;25.73;;;;;;;;;;5057983;28;20412;-69
2022/12/17 14:04:18;;;;;;;63.42;26.83;;;;;;;;;;5050630;28;20053;-70
2022/12/17 14:06:45;;;;;;;55.03;24.98;;;;;;;;;;5058116;28;20063;-69
2022/12/17 14:09:16;;;;;;;56.88;25.80;;;;;;;;;;5046661;28;20083;-70
2022/12/17 14:14:29;;;;;;;59.77;25.10;;;;;;;;;;5056351;28;20055;-69
2022/12/17 14:16:55;;;;;;;60.58;26.70;;;;;;;;;;5045562;28;20261;-69
2022/12/17 14:19:23;;;;;;;59.53;25.08;;;;;;;;;;5065110;28;20103;-69
2022/12/17 14:21:50;;;;;;;61.40;23.98;;;;;;;;;;5071289;28;20151;-68
2022/12/17 14:24:17;;;;;;;59.15;27.58;;;;;;;;;;5061393;28;20519;-70
2022/12/17 14:26:50;;;;;;;53.92;24.35;;;;;;;;;;5048496;28;20099;-69
2022/12/17 14:29:24;;;;;;;54.33;24.50;;;;;;;;;;5053222;28;20061;-69
2022/12/17 14:31:51;;;;;;;56.90;27.38;;;;;;;;;;5052305;28;20098;-69
2022/12/17 14:34:18;;;;;;;63.40;27.77;;;;;;;;;;5049538;28;20053;-69
2022/12/17 14:36:45;;;;;;;59.30;28.27;;;;;;;;;;5059836;28;20057;-68
2022/12/17 14:39:16;;;;;;;53.65;25.80;;;;;;;;;;5053971;28;21058;-69
2022/12/17 14:44:29;;;;;;;63.28;26.23;;;;;;;;;;5057047;28;20040;-69
2022/12/17 14:47:11;;;;;;;61.50;26.70;;;;;;;;;;5045312;28;20060;-69
2022/12/17 14:49:47;;;;;;;54.15;24.25;;;;;;;;;;5048227;28;20064;-69
2022/12/17 14:52:33;;;;;;;63.78;26.10;;;;;;;;;;5058226;28;20049;-69
2022/12/17 14:54:59;;;;;;;63.83;24.67;;;;;;;;;;5050331;28;20088;-68
2022/12/17 14:57:26;;;;;;;61.45;27.50;;;;;;;;;;5056112;28;20080;-68
2022/12/17 14:59:52;;;;;;;70.30;28.67;;;;;;;;;;5046486;28;20617;-68
2022/12/17 15:02:24;;;;;;;59.35;26.58;;;;;;;;;;5055737;28;20056;-69
2022/12/17 15:04:54;;;;;;;58.92;25.67;;;;;;;;;;5056423;28;20069;-68
2022/12/17 15:07:25;;;;;;;64.15;27.35;;;;;;;;;;5050557;28;20049;-68
2022/12/17 15:09:55;;;;;;;51.88;24.55;;;;;;;;;;5049599;28;20055;-69
2022/12/17 15:12:22;;;;;;;58.08;27.50;;;;;;;;;;5042709;28;20144;-69
2022/12/17 15:14:49;;;;;;;55.03;23.52;;;;;;;;;;5059784;28;20053;-69
2022/12/17 15:17:15;;;;;;;52.45;25.23;;;;;;;;;;5052999;28;20180;-69
2022/12/17 15:19:42;;;;;;;62.22;26.00;;;;;;;;;;5055759;28;20064;-69
2022/12/17 15:22:15;;;;;;;57.10;25.60;;;;;;;;;;5050474;28;20060;-69
2022/12/17 15:24:42;;;;;;;51.40;24.98;;;;;;;;;;5057244;28;20458;-69
2022/12/17 15:27:13;;;;;;;59.25;26.75;;;;;;;;;;5058504;28;20057;-69
2022/12/17 15:29:40;;;;;;;59.38;25.20;;;;;;;;;;5050621;28;20053;-69
2022/12/17 15:32:06;;;;;;;55.03;24.98;;;;;;;;;;5059975;28;20144;-69
2022/12/17 15:34:32;;;;;;;53.13;23.45;;;;;;;;;;5056172;28;20045;-69
2022/12/17 15:36:59;;;;;;;59.72;27.13;;;;;;;;;;5050400;28;20054;-69
2022/12/17 15:39:25;;;;;;;58.35;26.83;;;;;;;;;;5050631;28;20053;-69
2022/12/17 15:44:37;;;;;;;57.80;28.02;;;;;;;;;;5060611;28;20046;-69
2022/12/17 15:47:03;;;;;;;58.38;25.77;;;;;;;;;;5054239;28;20053;-69
2022/12/17 15:49:30;;;;;;;58.30;26.30;;;;;;;;;;5061625;28;20044;-69
2022/12/17 15:51:56;;;;;;;58.22;26.52;;;;;;;;;;5061576;28;20049;-69
2022/12/17 15:54:24;;;;;;;58.75;26.00;;;;;;;;;;5058570;28;20048;-70
2022/12/17 15:56:51;;;;;;;59.70;26.40;;;;;;;;;;5061609;28;20057;-70
2022/12/17 15:59:17;;;;;;;61.25;26.45;;;;;;;;;;5054321;28;20079;-69
2022/12/17 16:01:44;;;;;;;55.70;26.48;;;;;;;;;;5059403;28;20068;-70
2022/12/17 16:04:10;;;;;;;62.22;25.90;;;;;;;;;;5050986;28;20468;-70
2022/12/17 16:06:48;;;;;;;69.40;28.75;;;;;;;;;;5068638;28;20049;-70
2022/12/17 16:09:14;;;;;;;61.00;26.70;;;;;;;;;;5055116;28;20060;-70
2022/12/17 16:11:41;;;;;;;60.40;26.10;;;;;;;;;;5056554;28;20534;-70
2022/12/17 16:14:07;;;;;;;60.20;26.45;;;;;;;;;;5055413;28;20084;-71
2022/12/17 16:16:34;;;;;;;56.78;24.23;;;;;;;;;;5064462;28;20052;-70
2022/12/17 16:19:00;;;;;;;60.28;25.30;;;;;;;;;;5064440;28;20049;-70
2022/12/17 16:21:27;;;;;;;52.08;25.63;;;;;;;;;;5054430;28;20049;-70
2022/12/17 16:23:53;;;;;;;61.30;25.65;;;;;;;;;;5060735;28;20048;-71
2022/12/17 16:26:20;;;;;;;57.67;25.88;;;;;;;;;;5060521;28;20060;-70
2022/12/17 16:28:46;;;;;;;55.47;25.73;;;;;;;;;;5055491;28;20384;-70
2022/12/17 16:31:13;;;;;;;52.10;24.30;;;;;;;;;;5062264;28;20049;-70
2022/12/17 16:33:41;;;;;;;50.67;23.35;;;;;;;;;;5057936;28;20056;-70
2022/12/17 16:36:11;;;;;;;54.78;23.45;;;;;;;;;;5055760;28;20479;-70
2022/12/17 16:38:44;;;;;;;55.28;24.70;;;;;;;;;;5058028;28;20103;-70
2022/12/17 16:41:11;;;;;;;60.90;25.58;;;;;;;;;;5063963;28;20049;-70
2022/12/17 16:43:38;;;;;;;59.70;24.55;;;;;;;;;;5065475;28;20132;-70
2022/12/17 16:46:05;;;;;;;60.97;26.52;;;;;;;;;;5057494;28;20144;-70
2022/12/17 16:48:37;;;;;;;54.13;23.30;;;;;;;;;;5055891;28;20144;-70
2022/12/17 16:51:14;;;;;;;56.25;25.25;;;;;;;;;;5044187;28;20049;-71
2022/12/17 16:53:40;;;;;;;;;;;;;;;;;;5058182;28;20119;-71
2022/12/17 16:56:07;;;;;;;48.95;21.67;;;;;;;;;;5052609;28;46645;-71
2022/12/17 16:58:33;;;;;;;51.83;22.73;;;;;;;;;;5059297;28;20083;-70
2022/12/17 17:01:00;;;;;;;63.33;24.92;;;;;;;;;;5045767;28;20054;-71
2022/12/17 17:03:27;;;;;;;59.67;25.52;;;;;;;;;;5063463;28;20098;-70
2022/12/17 17:05:58;;;;;;;59.55;24.17;;;;;;;;;;5066331;28;20056;-70
2022/12/17 17:08:24;;;;;;;55.40;24.27;;;;;;;;;;5052470;28;20513;-70
2022/12/17 17:10:51;;;;;;;56.55;25.48;;;;;;;;;;5059089;28;20060;-70
2022/12/17 17:13:17;;;;;;;63.65;28.05;;;;;;;;;;5064157;28;20049;-70
2022/12/17 17:15:43;;;;;;;62.72;27.23;;;;;;;;;;5052644;28;20049;-71
2022/12/17 17:18:09;;;;;;;64.35;27.20;;;;;;;;;;5056882;28;20111;-70
2022/12/17 17:20:36;;;;;;;61.78;25.40;;;;;;;;;;5056163;28;20068;-71
2022/12/17 17:23:03;;;;;;;58.85;25.35;;;;;;;;;;5064607;28;20168;-71
2022/12/17 17:25:29;;;;;;;61.60;26.60;;;;;;;;;;5064191;28;20155;-71
2022/12/17 17:28:15;;;;;;;69.65;28.23;;;;;;;;;;5063531;28;20057;-71
2022/12/17 17:30:42;;;;;;;59.17;26.63;;;;;;;;;;5068433;28;20519;-71
2022/12/17 17:33:08;;;;;;;61.00;25.23;;;;;;;;;;5079506;28;20495;-71
2022/12/17 17:35:34;;;;;;;59.20;25.30;;;;;;;;;;5066233;28;20059;-71
2022/12/17 17:38:01;;;;;;;61.47;25.88;;;;;;;;;;5064378;28;20239;-71
2022/12/17 17:40:27;;;;;;;55.30;24.08;;;;;;;;;;5063410;28;20107;-71
2022/12/17 17:42:53;;;;;;;57.05;26.40;;;;;;;;;;5052307;28;20489;-70
2022/12/17 17:45:20;;;;;;;60.47;24.60;;;;;;;;;;5061755;28;20497;-71
2022/12/17 17:47:46;;;;;;;60.75;24.52;;;;;;;;;;5066792;28;20084;-70
2022/12/17 17:50:13;;;;;;;60.05;26.63;;;;;;;;;;5056790;28;20083;-71
2022/12/17 17:52:39;;;;;;;60.63;27.27;;;;;;;;;;5052865;28;20062;-71
2022/12/17 17:55:06;;;;;;;58.38;25.20;;;;;;;;;;5052372;28;20059;-71
2022/12/17 17:57:32;;;;;;;59.80;25.02;;;;;;;;;;5064051;28;20507;-71
2022/12/17 17:59:59;;;;;;;58.00;24.10;;;;;;;;;;5063575;28;20135;-70
2022/12/17 18:02:25;;;;;;;58.05;25.33;;;;;;;;;;5062382;28;20049;-70
2022/12/17 18:04:52;;;;;;;56.33;23.80;;;;;;;;;;5063307;28;20447;-70
2022/12/17 18:07:18;;;;;;;58.17;23.08;;;;;;;;;;5056527;28;20080;-70
2022/12/17 18:09:53;;;;;;;57.08;23.52;;;;;;;;;;5046802;28;20056;-70
2022/12/17 18:15:05;;;;;;;52.08;22.85;;;;;;;;;;5062942;28;20507;-70
2022/12/17 18:17:42;;;;;;;58.10;24.08;;;;;;;;;;5063499;28;20611;-71
2022/12/17 18:20:09;;;;;;;53.50;24.38;;;;;;;;;;5063280;28;20051;-70
2022/12/17 18:22:36;;;;;;;57.75;23.98;;;;;;;;;;5063017;28;20065;-71
2022/12/17 18:25:03;;;;;;;53.42;22.42;;;;;;;;;;5063766;28;20432;-70
2022/12/17 18:27:29;;;;;;;53.90;24.23;;;;;;;;;;5062542;28;20141;-71
2022/12/17 18:29:55;;;;;;;49.95;23.52;;;;;;;;;;5062238;28;20048;-71
2022/12/17 18:32:22;;;;;;;56.38;23.20;;;;;;;;;;5062712;28;20589;-70
2022/12/17 18:34:48;;;;;;;57.40;22.85;;;;;;;;;;5062750;28;20498;-70
2022/12/17 18:37:14;;;;;;;55.65;23.38;;;;;;;;;;5062569;28;20056;-70
2022/12/17 18:39:41;;;;;;;53.00;22.73;;;;;;;;;;5062710;28;20045;-70
2022/12/17 18:44:53;;;;;;;56.20;23.50;;;;;;;;;;5061577;28;20053;-71
2022/12/17 18:47:20;;;;;;;58.88;23.35;;;;;;;;;;5071016;28;20053;-71
2022/12/17 18:49:46;;;;;;;51.65;22.85;;;;;;;;;;5065064;28;20041;-71
2022/12/17 18:52:13;;;;;;;54.15;25.05;;;;;;;;;;5081182;28;20854;-70
2022/12/17 18:54:43;;;;;;;53.75;22.42;;;;;;;;;;5068015;28;20052;-71
2022/12/17 18:57:10;;;;;;;57.40;25.88;;;;;;;;;;5064760;28;20519;-71
2022/12/17 18:59:37;;;;;;;56.00;24.38;;;;;;;;;;5057540;28;20058;-71
2022/12/17 19:02:03;;;;;;;57.90;24.75;;;;;;;;;;5045213;28;20056;-70
2022/12/17 19:04:31;;;;;;;60.25;26.42;;;;;;;;;;5056357;28;20049;-70
2022/12/17 19:06:58;;;;;;;65.05;25.50;;;;;;;;;;5048951;28;20054;-70
2022/12/17 19:09:26;;;;;;;58.85;25.63;;;;;;;;;;5053633;28;20511;-71
2022/12/17 19:11:53;;;;;;;62.05;24.95;;;;;;;;;;5060492;28;20063;-70
2022/12/17 19:14:21;;;;;;;56.75;24.50;;;;;;;;;;5061965;28;20053;-71
2022/12/17 19:16:51;;;;;;;55.03;23.60;;;;;;;;;;5054253;28;20148;-71
2022/12/17 19:19:18;;;;;;;49.42;21.40;;;;;;;;;;5058072;28;20073;-71
2022/12/17 19:21:44;;;;;;;59.53;24.58;;;;;;;;;;5062271;28;20060;-70
2022/12/17 19:24:13;;;;;;;57.53;23.00;;;;;;;;;;5062272;28;20057;-71
2022/12/17 19:26:39;;;;;;;62.30;24.90;;;;;;;;;;5061279;28;20488;-70
2022/12/17 19:29:07;;;;;;;58.75;25.05;;;;;;;;;;5048391;28;20084;-71
2022/12/17 19:31:34;;;;;;;55.03;24.38;;;;;;;;;;5055828;28;20553;-71
2022/12/17 19:34:05;;;;;;;63.38;25.83;;;;;;;;;;5050714;28;20049;-71
2022/12/17 19:36:32;;;;;;;65.07;25.27;;;;;;;;;;5052250;28;20705;-71
2022/12/17 19:39:01;;;;;;;57.63;24.05;;;;;;;;;;5055428;28;20049;-71
2022/12/17 19:41:30;;;;;;;55.00;23.98;;;;;;;;;;5061747;28;20053;-71
2022/12/17 19:43:58;;;;;;;64.85;26.17;;;;;;;;;;5060398;28;20141;-70
2022/12/17 19:46:25;;;;;;;55.40;24.95;;;;;;;;;;5057908;28;20081;-71
2022/12/17 19:48:51;;;;;;;54.78;23.33;;;;;;;;;;5066388;28;20084;-70
2022/12/17 19:51:20;;;;;;;57.60;25.05;;;;;;;;;;5055656;28;20049;-71
2022/12/17 19:53:47;;;;;;;52.33;21.75;;;;;;;;;;5053571;28;20057;-71
2022/12/17 19:56:18;;;;;;;58.42;22.15;;;;;;;;;;5065157;28;20056;-72
2022/12/17 19:58:45;;;;;;;52.58;22.85;;;;;;;;;;5063401;28;20045;-70
2022/12/17 20:01:15;;;;;;;53.38;22.25;;;;;;;;;;5062267;28;20123;-70
2022/12/17 20:03:43;;;;;;;60.42;24.73;;;;;;;;;;5063065;28;20045;-71
2022/12/17 20:06:10;;;;;;;60.05;24.10;;;;;;;;;;5065749;28;20099;-71
2022/12/17 20:08:37;;;;;;;57.40;23.55;;;;;;;;;;5066291;28;20141;-71
2022/12/17 20:11:31;;;;;;;59.30;25.33;;;;;;;;;;5064470;28;20120;-70
2022/12/17 20:13:55;;;;;;;60.90;24.92;;;;;;;;;;5062777;28;20057;-70
2022/12/17 20:16:22;;;;;;;68.88;24.42;;;;;;;;;;5061053;28;20057;-70
2022/12/17 20:18:50;;;;;;;56.72;25.15;;;;;;;;;;5065139;28;20474;-71
2022/12/17 20:21:16;;;;;;;59.97;23.08;;;;;;;;;;5066953;28;20052;-71
2022/12/17 20:23:45;;;;;;;55.85;24.20;;;;;;;;;;5064713;28;20861;-71
2022/12/17 20:26:11;;;;;;;61.05;24.48;;;;;;;;;;5063360;28;20049;-71
2022/12/17 20:28:38;;;;;;;63.20;25.45;;;;;;;;;;5065364;28;20053;-70
2022/12/17 20:31:05;;;;;;;64.53;24.92;;;;;;;;;;5065109;28;20052;-71
2022/12/17 20:33:32;;;;;;;62.65;25.25;;;;;;;;;;5056820;28;20061;-71
2022/12/17 20:36:09;;;;;;;59.58;24.58;;;;;;;;;;5056424;28;20591;-71
2022/12/17 20:38:36;;;;;;;65.95;25.95;;;;;;;;;;5059675;28;20566;-70
2022/12/17 20:41:14;;;;;;;68.15;26.15;;;;;;;;;;5064230;28;20411;-71
2022/12/17 20:43:40;;;;;;;64.40;26.45;;;;;;;;;;5058920;28;20140;-71
2022/12/17 20:46:10;;;;;;;70.38;27.92;;;;;;;;;;5065073;28;20075;-70
2022/12/17 20:48:38;;;;;;;63.22;25.95;;;;;;;;;;5063668;28;20131;-70
2022/12/17 20:51:06;;;;;;;68.50;25.13;;;;;;;;;;5061479;28;20049;-71
2022/12/17 20:53:35;;;;;;;51.85;22.58;;;;;;;;;;5057046;28;20084;-71
2022/12/17 20:56:04;;;;;;;57.30;23.95;;;;;;;;;;5065181;28;20053;-71
2022/12/17 20:58:30;;;;;;;54.72;23.20;;;;;;;;;;5055159;28;20041;-70
2022/12/17 21:01:01;;;;;;;60.17;24.75;;;;;;;;;;5064219;28;20061;-70
2022/12/17 21:03:27;;;;;;;57.60;24.48;;;;;;;;;;5064178;28;20527;-70
2022/12/17 21:05:54;;;;;;;62.88;25.30;;;;;;;;;;5060540;28;20583;-70
2022/12/17 21:08:20;;;;;;;60.88;27.08;;;;;;;;;;5063441;28;20092;-71
2022/12/17 21:10:46;;;;;;;55.88;24.88;;;;;;;;;;5063749;28;20088;-70
2022/12/17 21:13:28;;;;;;;56.85;25.38;;;;;;;;;;5057521;28;20910;-70
2022/12/17 21:15:58;;;;;;;61.65;25.42;;;;;;;;;;5065402;28;20092;-71
2022/12/17 21:18:25;;;;;;;53.47;24.05;;;;;;;;;;5064276;28;20041;-71
2022/12/17 21:20:55;;;;;;;60.63;25.42;;;;;;;;;;5057369;28;20049;-71
2022/12/17 21:23:21;;;;;;;56.42;24.67;;;;;;;;;;5064110;28;20531;-71
2022/12/17 21:25:55;;;;;;;68.70;27.20;;;;;;;;;;5050242;28;20077;-71
2022/12/17 21:28:22;;;;;;;56.90;25.85;;;;;;;;;;5057153;28;20060;-70
2022/12/17 21:30:48;;;;;;;58.10;25.42;;;;;;;;;;5066945;28;20045;-71
2022/12/17 21:33:15;;;;;;;59.47;24.88;;;;;;;;;;5063463;28;20236;-70
2022/12/17 21:35:41;;;;;;;64.32;25.52;;;;;;;;;;5061299;28;20176;-71
2022/12/17 21:38:07;;;;;;;60.25;25.48;;;;;;;;;;5066858;28;20090;-72
2022/12/17 21:40:36;;;;;;;52.97;23.50;;;;;;;;;;5054366;28;20055;-70
2022/12/17 21:43:03;;;;;;;53.17;25.73;;;;;;;;;;5067253;28;20479;-71
2022/12/17 21:45:39;;;;;;;57.05;25.85;;;;;;;;;;5067955;28;20779;-71
2022/12/17 21:48:07;;;;;;;54.53;24.77;;;;;;;;;;5047188;28;20068;-71
2022/12/17 21:50:41;;;;;;;55.55;24.55;;;;;;;;;;5059999;28;20604;-71
2022/12/17 21:53:09;;;;;;;54.20;23.15;;;;;;;;;;5063397;28;20056;-71
2022/12/17 21:55:36;;;;;;;60.00;23.85;;;;;;;;;;5063074;28;20053;-71
2022/12/17 21:58:02;;;;;;;60.20;23.92;;;;;;;;;;5064525;28;20063;-71
2022/12/17 22:00:28;;;;;;;57.05;24.67;;;;;;;;;;5065428;28;20049;-72
2022/12/17 22:02:55;;;;;;;53.65;24.17;;;;;;;;;;5063377;28;20052;-70
2022/12/17 22:05:21;;;;;;;51.45;24.00;;;;;;;;;;5061513;28;20053;-71
2022/12/17 22:07:48;;;;;;;52.97;23.58;;;;;;;;;;5056457;28;20057;-71
2022/12/17 22:10:17;;;;;;;61.55;24.92;;;;;;;;;;5066699;28;20045;-70
2022/12/17 22:15:48;;;;;;;55.05;22.45;;;;;;;;;;5061162;28;20141;-71
2022/12/17 22:18:14;;;;;;;53.65;23.23;;;;;;;;;;5063891;28;20111;-71
2022/12/17 22:20:41;;;;;;;53.63;24.40;;;;;;;;;;5052643;28;20057;-71
2022/12/17 22:23:07;;;;;;;53.63;24.02;;;;;;;;;;5061603;28;20053;-70
2022/12/17 22:25:35;;;;;;;62.42;26.08;;;;;;;;;;5062815;28;20060;-71
2022/12/17 22:28:01;;;;;;;60.78;23.80;;;;;;;;;;5062126;28;20080;-72
2022/12/17 22:33:14;;;;;;;58.85;25.02;;;;;;;;;;5063265;28;20527;-71
2022/12/17 22:36:01;;;;;;;51.15;22.95;;;;;;;;;;5053668;28;20053;-71
2022/12/17 22:38:47;;;;;;;49.45;21.75;;;;;;;;;;5063063;28;20053;-71
2022/12/17 22:44:38;;;;;;;41.17;21.02;;;;;;;;;;5049492;28;20085;-71
2022/12/17 22:47:20;;;;;;;38.63;18.70;;;;;;;;;;5050958;28;20148;-72
2022/12/17 22:49:46;;;;;;;50.40;21.50;;;;;;;;;;5054195;28;20064;-72
2022/12/17 22:52:13;;;;;;;38.75;19.25;;;;;;;;;;5050126;28;21048;-72
2022/12/17 22:54:42;;;;;;;44.78;20.10;;;;;;;;;;5048557;28;20136;-73
2022/12/17 22:57:09;;;;;;;45.75;21.38;;;;;;;;;;5049718;28;20596;-73
2022/12/17 22:59:56;;;;;;;42.67;20.92;;;;;;;;;;5050753;28;20191;-73
2022/12/17 23:02:24;;;;;;;41.50;19.83;;;;;;;;;;5047803;28;20053;-72
2022/12/17 23:04:51;;;;;;;42.65;19.52;;;;;;;;;;5050237;28;20088;-73
2022/12/17 23:07:17;;;;;;;44.05;21.17;;;;;;;;;;5046811;28;20056;-72
2022/12/17 23:09:43;;;;;;;46.90;20.55;;;;;;;;;;5048191;28;20053;-73
2022/12/17 23:14:55;;;;;;;44.78;20.40;;;;;;;;;;5050368;28;20053;-72
2022/12/17 23:17:21;;;;;;;46.78;20.75;;;;;;;;;;5049073;28;20049;-72
2022/12/17 23:19:47;;;;;;;48.67;21.70;;;;;;;;;;5051185;28;20049;-72
2022/12/17 23:22:14;;;;;;;49.80;22.85;;;;;;;;;;5048307;28;20188;-73
2022/12/17 23:24:47;;;;;;;42.78;21.20;;;;;;;;;;5046835;28;20067;-73
2022/12/17 23:27:13;;;;;;;52.85;23.35;;;;;;;;;;5051297;28;20820;-72
2022/12/17 23:29:39;;;;;;;47.38;21.75;;;;;;;;;;5050530;28;20537;-72
2022/12/17 23:32:06;;;;;;;49.03;23.92;;;;;;;;;;5050663;28;20053;-72
2022/12/17 23:34:33;;;;;;;49.47;20.90;;;;;;;;;;5047391;28;20053;-71
2022/12/17 23:36:59;;;;;;;46.38;21.38;;;;;;;;;;5052180;28;20049;-72
2022/12/17 23:39:25;;;;;;;52.05;23.10;;;;;;;;;;5049851;28;20053;-72
2022/12/17 23:41:55;;;;;;;46.45;23.23;;;;;;;;;;5051310;28;20062;-72
2022/12/17 23:44:21;;;;;;;50.38;23.65;;;;;;;;;;5050055;28;20052;-72
2022/12/17 23:46:47;;;;;;;46.65;22.42;;;;;;;;;;5047980;28;20049;-72
2022/12/17 23:49:14;;;;;;;43.90;21.13;;;;;;;;;;5050781;28;20144;-72
2022/12/17 23:51:40;;;;;;;47.38;21.25;;;;;;;;;;5047781;28;20507;-72
2022/12/17 23:54:06;;;;;;;54.30;22.33;;;;;;;;;;5049009;28;20649;-72
2022/12/17 23:56:34;;;;;;;45.28;22.00;;;;;;;;;;5052845;28;20135;-73
2022/12/17 23:59:01;;;;;;;53.22;23.15;;;;;;;;;;5049237;28;20050;-72
